createdAt,value
2018-02-13T00:01:30.509Z,14.03
2018-02-13T00:03:57.959Z,11.07
2018-02-13T00:06:25.452Z,10.93
2018-02-13T00:08:52.897Z,12.10
2018-02-13T00:11:20.414Z,10.43
2018-02-13T00:13:47.867Z,13.53
2018-02-13T00:16:15.325Z,11.87
2018-02-13T00:18:43.096Z,12.83
2018-02-13T00:21:10.851Z,13.73
2018-02-13T00:23:38.307Z,12.73
2018-02-13T00:26:06.232Z,12.43
2018-02-13T00:28:33.712Z,12.03
2018-02-13T00:31:01.166Z,12.33
2018-02-13T00:33:28.682Z,12.77
2018-02-13T00:35:56.166Z,15.67
2018-02-13T00:38:23.651Z,16.03
2018-02-13T00:40:51.141Z,18.47
2018-02-13T00:43:18.869Z,14.03
2018-02-13T00:45:46.333Z,15.50
2018-02-13T00:48:14.098Z,19.47
2018-02-13T00:50:41.565Z,15.57
2018-02-13T00:53:09.201Z,14.27
2018-02-13T00:55:36.779Z,13.80
2018-02-13T00:58:04.242Z,14.23
2018-02-13T01:00:31.697Z,12.73
2018-02-13T01:02:59.449Z,11.50
2018-02-13T01:05:27.213Z,14.33
2018-02-13T01:07:54.773Z,14.60
2018-02-13T01:10:22.225Z,15.50
2018-02-13T01:12:49.889Z,12.80
2018-02-13T01:15:17.358Z,12.00
2018-02-13T01:17:44.813Z,12.40
2018-02-13T01:20:12.457Z,13.17
2018-02-13T01:22:39.901Z,12.50
2018-02-13T01:25:07.493Z,16.00
2018-02-13T01:27:35.098Z,15.37
2018-02-13T01:30:02.566Z,12.73
2018-02-13T01:32:30.098Z,12.03
2018-02-13T01:34:57.565Z,13.77
2018-02-13T01:37:25.075Z,10.47
2018-02-13T01:39:52.541Z,12.00
2018-02-13T01:42:20.184Z,13.10
2018-02-13T01:44:47.690Z,10.60
2018-02-13T01:47:15.139Z,12.77
2018-02-13T01:49:42.601Z,13.60
2018-02-13T01:52:10.058Z,10.27
2018-02-13T01:54:37.572Z,14.00
2018-02-13T01:57:05.021Z,17.77
2018-02-13T01:59:32.465Z,11.00
2018-02-13T02:01:59.921Z,12.43
2018-02-13T02:04:27.589Z,15.83
2018-02-13T02:06:55.046Z,17.77
2018-02-13T02:09:22.497Z,17.17
2018-02-13T02:11:50.078Z,14.80
2018-02-13T02:14:17.849Z,14.53
2018-02-13T02:16:45.307Z,15.50
2018-02-13T02:19:12.865Z,13.83
2018-02-13T02:21:40.529Z,14.63
2018-02-13T02:24:08.190Z,16.53
2018-02-13T02:26:35.653Z,16.00
2018-02-13T02:29:03.105Z,14.50
2018-02-13T02:31:30.582Z,21.63
2018-02-13T02:33:58.042Z,19.83
2018-02-13T02:36:25.515Z,22.93
2018-02-13T02:38:52.976Z,21.03
2018-02-13T02:41:20.443Z,19.80
2018-02-13T02:43:47.899Z,18.33
2018-02-13T02:46:15.394Z,16.60
2018-02-13T02:48:43.152Z,14.70
2018-02-13T02:51:10.909Z,12.70
2018-02-13T02:53:38.386Z,15.47
2018-02-13T02:56:06.303Z,13.57
2018-02-13T02:58:33.779Z,15.33
2018-02-13T03:01:01.231Z,12.53
2018-02-13T03:03:28.691Z,12.90
2018-02-13T03:05:56.173Z,19.13
2018-02-13T03:08:23.721Z,15.73
2018-02-13T03:10:51.211Z,13.20
2018-02-13T03:13:18.945Z,16.20
2018-02-13T03:15:46.430Z,11.23
2018-02-13T03:18:14.172Z,12.50
2018-02-13T03:20:41.809Z,15.43
2018-02-13T03:23:09.273Z,15.57
2018-02-13T03:25:36.786Z,14.60
2018-02-13T03:28:04.304Z,12.40
2018-02-13T03:30:33.278Z,12.63
2018-02-13T03:33:00.753Z,12.00
2018-02-13T03:35:28.332Z,11.63
2018-02-13T03:37:56.585Z,13.47
2018-02-13T03:40:24.234Z,11.93
2018-02-13T03:42:51.690Z,12.70
2018-02-13T03:45:19.146Z,13.70
2018-02-13T03:47:46.613Z,11.87
2018-02-13T03:50:14.077Z,14.23
2018-02-13T03:52:41.533Z,14.93
2018-02-13T03:55:09.004Z,15.03
2018-02-13T03:57:36.458Z,12.93
2018-02-13T04:00:03.926Z,15.83
2018-02-13T04:02:31.453Z,13.07
2018-02-13T04:04:58.912Z,13.57
2018-02-13T04:07:26.357Z,14.60
2018-02-13T04:09:54.033Z,14.57
2018-02-13T04:12:21.593Z,12.07
2018-02-13T04:14:49.357Z,15.17
2018-02-13T04:17:17.122Z,19.07
2018-02-13T04:19:44.905Z,15.50
2018-02-13T04:22:12.573Z,18.57
2018-02-13T04:24:40.102Z,17.53
2018-02-13T04:27:07.602Z,16.30
2018-02-13T04:29:35.109Z,14.67
2018-02-13T04:32:02.565Z,14.63
2018-02-13T04:34:30.245Z,14.53
2018-02-13T04:36:58.006Z,12.33
2018-02-13T04:39:25.553Z,12.93
2018-02-13T04:41:53.217Z,19.10
2018-02-13T04:44:20.985Z,13.17
2018-02-13T04:46:48.440Z,15.10
2018-02-13T04:49:16.204Z,19.23
2018-02-13T04:51:43.790Z,13.97
2018-02-13T04:54:12.007Z,13.47
2018-02-13T04:56:39.491Z,14.67
2018-02-13T04:59:07.457Z,12.87
2018-02-13T05:01:34.877Z,15.07
2018-02-13T05:04:03.402Z,13.80
2018-02-13T05:06:31.161Z,13.03
2018-02-13T05:08:58.814Z,14.07
2018-02-13T05:11:26.264Z,13.53
2018-02-13T05:13:53.769Z,13.93
2018-02-13T05:16:21.298Z,16.63
2018-02-13T05:18:49.062Z,14.53
2018-02-13T05:21:16.510Z,14.27
2018-02-13T05:23:43.973Z,14.73
2018-02-13T05:26:11.425Z,12.53
2018-02-13T05:28:38.939Z,13.63
2018-02-13T05:31:06.346Z,12.13
2018-02-13T05:33:34.111Z,14.63
2018-02-13T05:36:01.733Z,14.37
2018-02-13T05:38:29.271Z,19.83
2018-02-13T05:40:56.722Z,15.10
2018-02-13T05:43:24.252Z,13.90
2018-02-13T05:45:51.908Z,11.87
2018-02-13T05:48:20.257Z,18.50
2018-02-13T05:50:47.749Z,15.23
2018-02-13T05:53:15.199Z,13.70
2018-02-13T05:55:42.669Z,13.33
2018-02-13T05:58:10.121Z,17.07
2018-02-13T06:00:37.718Z,15.10
2018-02-13T06:03:05.300Z,16.97
2018-02-13T06:05:32.766Z,15.07
2018-02-13T06:08:00.214Z,12.43
2018-02-13T06:10:27.711Z,12.57
2018-02-13T06:12:55.254Z,16.63
2018-02-13T06:15:23.026Z,17.97
2018-02-13T06:17:50.834Z,16.37
2018-02-13T06:20:18.438Z,17.90
2018-02-13T06:22:45.889Z,16.33
2018-02-13T06:25:13.373Z,15.57
2018-02-13T06:27:40.829Z,16.20
2018-02-13T06:30:08.386Z,20.03
2018-02-13T06:32:35.965Z,19.00
2018-02-13T06:35:04.194Z,15.57
2018-02-13T06:37:31.858Z,16.73
2018-02-13T06:39:59.444Z,16.97
2018-02-13T06:42:26.898Z,18.27
2018-02-13T06:44:54.662Z,18.20
2018-02-13T06:47:22.109Z,16.03
2018-02-13T06:49:49.876Z,16.53
2018-02-13T06:52:17.338Z,15.93
2018-02-13T06:54:45.098Z,16.17
2018-02-13T06:57:12.847Z,15.23
2018-02-13T06:59:40.485Z,16.97
2018-02-13T07:02:08.073Z,18.10
2018-02-13T07:04:35.526Z,14.47
2018-02-13T07:07:02.998Z,19.27
2018-02-13T07:09:30.515Z,19.50
2018-02-13T07:11:58.240Z,17.30
2018-02-13T07:14:25.878Z,17.53
2018-02-13T07:16:53.392Z,19.40
2018-02-13T07:19:20.848Z,19.57
2018-02-13T07:21:48.356Z,19.20
2018-02-13T07:24:15.813Z,19.43
2018-02-13T07:26:43.463Z,19.23
2018-02-13T07:29:10.911Z,17.77
2018-02-13T07:31:38.519Z,14.23
2018-02-13T07:34:06.247Z,15.87
2018-02-13T07:36:33.838Z,20.03
2018-02-13T07:39:01.290Z,15.00
2018-02-13T07:41:29.566Z,15.17
2018-02-13T07:43:57.021Z,17.87
2018-02-13T07:46:25.365Z,14.17
2018-02-13T07:48:52.838Z,18.70
2018-02-13T07:51:20.300Z,15.73
2018-02-13T07:53:47.798Z,16.60
2018-02-13T07:56:15.406Z,15.10
2018-02-13T07:58:42.876Z,19.50
2018-02-13T08:01:10.366Z,19.03
2018-02-13T08:03:37.869Z,18.20
2018-02-13T08:06:05.629Z,18.30
2018-02-13T08:08:33.094Z,17.07
2018-02-13T08:11:00.858Z,18.40
2018-02-13T08:13:28.498Z,18.27
2018-02-13T08:15:55.998Z,15.43
2018-02-13T08:18:23.459Z,17.40
2018-02-13T08:20:50.921Z,14.73
2018-02-13T08:23:18.391Z,16.50
2018-02-13T08:25:45.858Z,16.00
2018-02-13T08:28:13.316Z,18.27
2018-02-13T08:30:40.821Z,17.27
2018-02-13T08:33:08.486Z,15.40
2018-02-13T08:35:35.949Z,14.77
2018-02-13T08:38:03.486Z,20.00
2018-02-13T08:40:30.961Z,12.83
2018-02-13T08:42:58.428Z,13.13
2018-02-13T08:45:25.910Z,13.43
2018-02-13T08:47:53.618Z,15.90
2018-02-13T08:50:21.125Z,11.73
2018-02-13T08:52:48.870Z,12.87
2018-02-13T08:55:16.607Z,11.00
2018-02-13T08:57:44.082Z,9.50
2018-02-13T09:00:11.539Z,11.50
2018-02-13T09:02:38.989Z,15.27
2018-02-13T09:05:06.446Z,9.60
2018-02-13T09:07:33.889Z,13.07
2018-02-13T09:10:01.381Z,13.27
2018-02-13T09:15:03.791Z,12.00
2018-02-13T09:17:31.265Z,14.47
2018-02-13T09:19:58.864Z,13.10
2018-02-13T09:22:26.475Z,12.37
2018-02-13T09:24:54.010Z,10.93
2018-02-13T09:27:21.477Z,11.47
2018-02-13T09:29:48.993Z,7.10
2018-02-13T09:32:16.650Z,12.30
2018-02-13T09:34:44.121Z,12.90
2018-02-13T09:37:11.683Z,13.13
2018-02-13T09:39:39.291Z,13.27
2018-02-13T09:42:06.794Z,11.87
2018-02-13T09:44:34.344Z,9.73
2018-02-13T09:47:01.793Z,10.27
2018-02-13T09:49:29.320Z,13.03
2018-02-13T09:51:56.779Z,12.80
2018-02-13T09:54:24.452Z,11.37
2018-02-13T09:56:51.931Z,14.13
2018-02-13T09:59:19.383Z,8.43
2018-02-13T10:01:46.849Z,10.77
2018-02-13T10:04:14.307Z,11.57
2018-02-13T10:06:41.760Z,15.40
2018-02-13T10:09:09.223Z,11.77
2018-02-13T10:11:36.685Z,11.07
2018-02-13T10:14:04.145Z,17.17
2018-02-13T10:16:31.597Z,11.97
2018-02-13T10:18:59.069Z,12.17
2018-02-13T10:21:26.522Z,10.10
2018-02-13T10:23:53.983Z,9.80
2018-02-13T10:26:21.428Z,11.97
2018-02-13T10:28:48.885Z,9.20
2018-02-13T10:31:16.332Z,11.97
2018-02-13T10:33:43.785Z,16.80
2018-02-13T10:36:11.242Z,9.83
2018-02-13T10:38:38.716Z,12.53
2018-02-13T10:41:06.174Z,12.97
2018-02-13T10:43:33.637Z,9.23
2018-02-13T10:46:01.090Z,7.90
2018-02-13T10:48:28.549Z,10.87
2018-02-13T10:50:56.287Z,9.37
2018-02-13T10:53:23.793Z,6.93
2018-02-13T10:55:51.230Z,9.53
2018-02-13T10:58:18.894Z,8.63
2018-02-13T11:00:52.058Z,7.00
2018-02-13T11:03:19.521Z,9.73
2018-02-13T11:05:47.742Z,4.90
2018-02-13T11:08:15.194Z,3.60
2018-02-13T11:10:42.663Z,8.77
2018-02-13T11:13:10.111Z,3.27
2018-02-13T11:15:37.574Z,3.10
2018-02-13T11:18:05.017Z,4.73
2018-02-13T11:20:32.472Z,3.73
2018-02-13T11:22:59.929Z,3.00
2018-02-13T11:25:27.393Z,5.97
2018-02-13T11:27:54.849Z,3.80
2018-02-13T11:30:22.319Z,4.97
2018-02-13T11:32:49.799Z,9.47
2018-02-13T11:35:17.231Z,16.13
2018-02-13T11:37:44.685Z,2.63
2018-02-13T11:40:12.145Z,4.60
2018-02-13T11:42:39.600Z,7.23
2018-02-13T11:45:07.060Z,4.20
2018-02-13T11:47:35.458Z,5.97
2018-02-13T11:50:02.907Z,9.87
2018-02-13T11:52:30.369Z,3.37
2018-02-13T11:54:57.817Z,3.97
2018-02-13T11:57:25.275Z,5.30
2018-02-13T11:59:52.725Z,5.07
2018-02-13T12:02:20.793Z,5.50
2018-02-13T12:04:49.019Z,3.23
2018-02-13T12:07:17.247Z,4.33
2018-02-13T12:09:44.709Z,9.70
2018-02-13T12:12:12.149Z,4.90
2018-02-13T12:14:39.605Z,5.40
2018-02-13T12:17:07.079Z,7.70
2018-02-13T12:19:34.516Z,8.17
2018-02-13T12:22:02.005Z,8.63
2018-02-13T12:24:29.458Z,5.30
2018-02-13T12:26:56.904Z,5.63
2018-02-13T12:29:24.365Z,5.17
2018-02-13T12:31:52.782Z,5.87
2018-02-13T12:34:20.513Z,7.47
2018-02-13T12:36:47.972Z,4.90
2018-02-13T12:39:15.433Z,5.67
2018-02-13T12:41:42.897Z,11.10
2018-02-13T12:44:10.646Z,4.00
2018-02-13T12:46:38.979Z,9.33
2018-02-13T12:49:06.447Z,6.47
2018-02-13T12:51:33.901Z,9.63
2018-02-13T12:54:01.361Z,7.43
2018-02-13T12:56:28.837Z,4.87
2018-02-13T12:58:56.302Z,5.60
2018-02-13T13:01:23.745Z,5.80
2018-02-13T13:03:51.202Z,5.17
2018-02-13T13:06:18.663Z,5.63
2018-02-13T13:08:46.117Z,6.00
2018-02-13T13:11:13.585Z,5.70
2018-02-13T13:13:41.034Z,7.60
2018-02-13T13:16:08.490Z,8.83
2018-02-13T13:18:35.945Z,6.53
2018-02-13T13:21:03.428Z,5.70
2018-02-13T13:23:30.865Z,9.67
2018-02-13T13:25:58.329Z,5.90
2018-02-13T13:28:25.802Z,5.07
2018-02-13T13:30:53.262Z,6.97
2018-02-13T13:33:20.714Z,4.37
2018-02-13T13:35:48.464Z,6.37
2018-02-13T13:38:16.229Z,10.57
2018-02-13T13:40:43.692Z,5.83
2018-02-13T13:43:11.143Z,6.47
2018-02-13T13:45:38.597Z,12.60
2018-02-13T13:48:06.045Z,7.63
2018-02-13T13:50:33.501Z,6.23
2018-02-13T13:53:00.961Z,6.13
2018-02-13T13:55:28.429Z,8.23
2018-02-13T13:57:56.049Z,6.47
2018-02-13T14:00:23.561Z,5.00
2018-02-13T14:02:51.013Z,3.87
2018-02-13T14:05:19.327Z,2.93
2018-02-13T14:07:46.873Z,4.07
2018-02-13T14:10:15.905Z,5.87
2018-02-13T14:12:43.366Z,6.20
2018-02-13T14:15:10.830Z,4.67
2018-02-13T14:17:38.317Z,6.80
2018-02-13T14:20:05.758Z,6.13
2018-02-13T14:22:33.234Z,13.57
2018-02-13T14:25:00.831Z,19.73
2018-02-13T14:27:28.353Z,6.43
2018-02-13T14:29:55.894Z,6.00
2018-02-13T14:32:23.565Z,9.77
2018-02-13T14:34:51.027Z,8.93
2018-02-13T14:37:19.494Z,4.63
2018-02-13T14:39:46.958Z,12.50
2018-02-13T14:42:14.424Z,5.97
2018-02-13T14:44:42.781Z,3.73
2018-02-13T14:47:10.464Z,4.80
2018-02-13T14:49:37.927Z,5.77
2018-02-13T14:52:05.378Z,13.43
2018-02-13T14:54:32.821Z,7.00
2018-02-13T14:57:00.274Z,8.03
2018-02-13T14:59:27.730Z,7.83
2018-02-13T15:01:55.185Z,7.13
2018-02-13T15:04:22.647Z,7.40
2018-02-13T15:06:50.114Z,5.97
2018-02-13T15:09:17.569Z,4.77
2018-02-13T15:11:45.018Z,9.07
2018-02-13T15:14:12.493Z,4.67
2018-02-13T15:16:42.511Z,4.33
2018-02-13T15:19:10.137Z,8.43
2018-02-13T15:21:37.614Z,4.10
2018-02-13T15:24:05.070Z,7.03
2018-02-13T15:26:32.526Z,4.07
2018-02-13T15:28:59.982Z,7.67
2018-02-13T15:31:27.436Z,5.70
2018-02-13T15:33:54.913Z,14.97
2018-02-13T15:36:22.353Z,8.30
2018-02-13T15:38:49.823Z,6.20
2018-02-13T15:41:17.357Z,9.67
2018-02-13T15:43:45.118Z,8.33
2018-02-13T15:46:12.815Z,17.47
2018-02-13T15:48:40.267Z,6.40
2018-02-13T15:51:07.718Z,8.23
2018-02-13T15:53:35.187Z,9.60
2018-02-13T15:56:02.698Z,10.30
2018-02-13T15:58:30.161Z,6.73
2018-02-13T16:00:57.692Z,7.30
2018-02-13T16:03:25.298Z,4.97
2018-02-13T16:05:52.757Z,6.03
2018-02-13T16:08:20.213Z,8.97
2018-02-13T16:10:47.689Z,7.17
2018-02-13T16:13:15.213Z,7.53
2018-02-13T16:15:42.683Z,7.43
2018-02-13T16:18:10.434Z,15.10
2018-02-13T16:20:37.952Z,8.53
2018-02-13T16:23:05.499Z,7.43
2018-02-13T16:25:32.979Z,9.70
2018-02-13T16:28:00.434Z,8.00
2018-02-13T16:30:27.885Z,13.60
2018-02-13T16:32:55.335Z,8.67
2018-02-13T16:35:22.838Z,6.80
2018-02-13T16:37:50.298Z,11.03
2018-02-13T16:40:17.742Z,8.60
2018-02-13T16:42:45.197Z,9.67
2018-02-13T16:45:12.774Z,7.53
2018-02-13T16:47:40.226Z,8.10
2018-02-13T16:50:07.697Z,8.60
2018-02-13T16:52:35.226Z,9.67
2018-02-13T16:55:02.681Z,9.73
2018-02-13T16:57:30.137Z,8.90
2018-02-13T16:59:57.597Z,10.60
2018-02-13T17:02:25.059Z,7.83
2018-02-13T17:04:52.509Z,12.30
2018-02-13T17:07:19.974Z,8.53
2018-02-13T17:09:47.421Z,18.60
2018-02-13T17:12:14.886Z,11.07
2018-02-13T17:14:42.333Z,11.57
2018-02-13T17:17:09.795Z,12.10
2018-02-13T17:19:37.375Z,10.80
2018-02-13T17:22:04.789Z,12.37
2018-02-13T17:24:32.240Z,11.53
2018-02-13T17:26:59.762Z,14.17
2018-02-13T17:29:27.213Z,16.43
2018-02-13T17:31:54.670Z,14.80
2018-02-13T17:34:22.164Z,11.27
2018-02-13T17:36:49.600Z,8.40
2018-02-13T17:39:17.830Z,20.33
2018-02-13T17:41:45.288Z,9.00
2018-02-13T17:44:12.750Z,8.97
2018-02-13T17:46:40.197Z,9.60
2018-02-13T17:49:07.772Z,16.27
2018-02-13T17:51:35.180Z,15.33
2018-02-13T17:54:02.635Z,11.90
2018-02-13T17:56:30.078Z,9.40
2018-02-13T17:58:57.564Z,11.80
2018-02-13T18:01:25.006Z,13.60
2018-02-13T18:03:52.505Z,11.27
2018-02-13T18:06:19.950Z,13.27
2018-02-13T18:08:47.456Z,13.80
2018-02-13T18:11:14.909Z,15.90
2018-02-13T18:13:42.366Z,13.77
2018-02-13T18:16:09.856Z,12.17
2018-02-13T18:18:37.357Z,18.17
2018-02-13T18:21:04.814Z,14.87
2018-02-13T18:23:32.326Z,15.27
2018-02-13T18:25:59.794Z,14.13
2018-02-13T18:28:27.269Z,17.47
2018-02-13T18:30:54.729Z,17.47
2018-02-13T18:33:22.197Z,15.37
2018-02-13T18:35:49.654Z,15.63
2018-02-13T18:38:17.102Z,15.70
2018-02-13T18:40:44.557Z,14.90
2018-02-13T18:43:12.010Z,13.90
2018-02-13T18:45:39.473Z,16.73
2018-02-13T18:48:06.936Z,16.37
2018-02-13T18:50:34.385Z,15.87
2018-02-13T18:55:29.393Z,15.97
2018-02-13T18:57:56.837Z,19.10
2018-02-13T19:00:24.308Z,22.50
2018-02-13T19:02:51.768Z,16.87
2018-02-13T19:05:19.221Z,15.60
2018-02-13T19:07:46.705Z,19.67
2018-02-13T19:10:14.173Z,15.53
2018-02-13T19:12:41.634Z,15.90
2018-02-13T19:15:09.085Z,15.70
2018-02-13T19:17:36.580Z,15.40
2018-02-13T19:20:04.092Z,15.70
2018-02-13T19:22:31.553Z,17.47
2018-02-13T19:24:59.010Z,14.93
2018-02-13T19:27:26.473Z,16.07
2018-02-13T19:29:53.913Z,19.90
2018-02-13T19:32:21.383Z,15.23
2018-02-13T19:34:48.835Z,23.70
2018-02-13T19:37:16.293Z,16.73
2018-02-13T19:39:43.746Z,22.87
2018-02-13T19:42:11.219Z,16.17
2018-02-13T19:44:38.666Z,20.10
2018-02-13T19:47:06.137Z,17.60
2018-02-13T19:49:33.594Z,20.03
2018-02-13T19:52:01.058Z,18.10
2018-02-13T19:54:28.734Z,18.67
2018-02-13T19:56:56.201Z,24.30
2018-02-13T19:59:23.677Z,21.43
2018-02-13T20:01:51.137Z,28.17
2018-02-13T20:04:18.647Z,18.87
2018-02-13T20:06:46.106Z,17.57
2018-02-13T20:09:13.569Z,25.60
2018-02-13T20:11:41.022Z,20.93
2018-02-13T20:14:08.533Z,17.93
2018-02-13T20:16:35.990Z,18.87
2018-02-13T20:19:03.454Z,20.63
2018-02-13T20:21:30.924Z,20.77
2018-02-13T20:23:58.405Z,22.43
2018-02-13T20:26:26.621Z,20.13
2018-02-13T20:28:54.087Z,20.27
2018-02-13T20:31:21.545Z,32.77
2018-02-13T20:33:49.010Z,24.33
2018-02-13T20:36:16.471Z,19.03
2018-02-13T20:38:43.952Z,20.03
2018-02-13T20:41:11.422Z,21.50
2018-02-13T20:43:38.967Z,20.30
2018-02-13T20:46:07.191Z,24.10
2018-02-13T20:48:34.649Z,23.03
2018-02-13T20:51:02.105Z,24.17
2018-02-13T20:53:29.566Z,28.67
2018-02-13T20:55:57.025Z,22.67
2018-02-13T20:58:24.491Z,27.97
2018-02-13T21:00:51.941Z,27.13
2018-02-13T21:03:20.177Z,26.10
2018-02-13T21:05:47.638Z,23.37
2018-02-13T21:08:15.107Z,26.20
2018-02-13T21:10:42.569Z,23.13
2018-02-13T21:13:10.041Z,29.10
2018-02-13T21:15:37.640Z,22.60
2018-02-13T21:18:05.270Z,23.17
2018-02-13T21:20:32.721Z,25.10
2018-02-13T21:23:00.304Z,24.80
2018-02-13T21:25:27.777Z,18.17
2018-02-13T21:27:55.234Z,19.97
2018-02-13T21:30:22.691Z,18.47
2018-02-13T21:32:50.149Z,20.87
2018-02-13T21:35:17.818Z,22.93
2018-02-13T21:37:45.276Z,21.23
2018-02-13T21:40:12.742Z,19.33
2018-02-13T21:42:40.262Z,23.87
2018-02-13T21:45:07.733Z,21.60
2018-02-13T21:47:35.658Z,22.57
2018-02-13T21:50:03.130Z,18.53
2018-02-13T21:52:30.680Z,21.80
2018-02-13T21:54:58.472Z,25.07
2018-02-13T21:57:26.010Z,18.47
2018-02-13T21:59:53.494Z,24.57
2018-02-13T22:02:20.946Z,21.13
2018-02-13T22:04:48.465Z,22.93
2018-02-13T22:07:16.290Z,19.23
2018-02-13T22:09:43.748Z,23.77
2018-02-13T22:12:11.203Z,24.60
2018-02-13T22:14:38.661Z,22.30
2018-02-13T22:17:06.155Z,20.23
2018-02-13T22:19:33.649Z,22.00
2018-02-13T22:22:01.109Z,26.07
2018-02-13T22:24:28.565Z,23.43
2018-02-13T22:26:56.034Z,25.30
2018-02-13T22:29:23.506Z,27.93
2018-02-13T22:31:51.132Z,24.53
2018-02-13T22:34:18.606Z,20.90
2018-02-13T22:36:46.162Z,23.93
2018-02-13T22:39:13.642Z,24.90
2018-02-13T22:41:41.202Z,29.17
2018-02-13T22:44:09.430Z,21.67
2018-02-13T22:46:36.945Z,24.17
2018-02-13T22:49:04.417Z,29.87
2018-02-13T22:51:31.930Z,25.30
2018-02-13T22:53:59.409Z,24.17
2018-02-13T22:56:27.634Z,25.93
2018-02-13T22:58:55.963Z,25.90
2018-02-13T23:01:23.415Z,21.10
2018-02-13T23:03:50.908Z,21.20
2018-02-13T23:06:18.370Z,19.53
2018-02-13T23:08:45.845Z,28.23
2018-02-13T23:11:13.298Z,22.07
2018-02-13T23:13:40.772Z,23.70
2018-02-13T23:16:08.582Z,27.03
2018-02-13T23:18:36.233Z,30.20
2018-02-13T23:21:03.793Z,22.40
2018-02-13T23:23:31.513Z,26.83
2018-02-13T23:25:59.280Z,25.73
2018-02-13T23:28:27.050Z,24.73
2018-02-13T23:30:54.816Z,24.90
2018-02-13T23:33:22.277Z,25.23
2018-02-13T23:35:49.733Z,26.27
2018-02-13T23:38:17.222Z,24.73
2018-02-13T23:40:44.679Z,25.07
2018-02-13T23:43:12.142Z,26.70
2018-02-13T23:45:39.695Z,26.33
2018-02-13T23:48:07.325Z,25.23
2018-02-13T23:50:35.075Z,27.73
2018-02-13T23:53:02.898Z,24.07
2018-02-13T23:55:30.597Z,27.77
2018-02-13T23:57:58.166Z,23.33
